Briggs, TX (78608)

12:39 PM CDT on September 19, 2014 (GMT -0500)
FaultLineFlyers Gliderport | Change Station
CLOSE
Current Station
Personal Weather Station
Location: Briggs, TX
Elevation: 1148 ft
Nearby Weather Stations

Elev 1148 ft 30.86 °N, 97.95 °W | Updated 4 minutes ago

Overcast
Overcast
72.7 °F
Feels Like 72.7 °F
N
5.0
Wind Variable Wind from ENE
Gusts 9.0 mph

Today
High -- | Low -- °F
--% Chance of Precip.
Yesterday
High -- | Low -- °F
Precip. -- in
7:18 AM 7:32 PM
Waning Crescent, 18% visible
Pressure 29.98 in
Visibility 7.0 miles
Clouds Mostly Cloudy 800 ft
Overcast 1500 ft
Dew Point 72 °F
Humidity 98%
Rainfall 0.00 in
Snow Depth Not available.
UV 3 out of 12
Pollen 6.50 out of 12
Air Quality Not available.
Flu Activity Not available.
METAR KGRK 191655Z 07007KT 7SM BKN008 OVC015 26/22 A2999 RMK SLP150

More Conditions Fewer Conditions

Pressure 29.98 in
Visibility 7.0 miles
Clouds Mostly Cloudy 800 ft
Overcast 1500 ft
Dew Point 72 °F
Humidity 98%
Rainfall 0.00 in
Snow Depth Not available.
UV 3 out of 12
Pollen 6.50 out of 12
Air Quality Not available.
Flu Activity Not available.
METAR KGRK 191655Z 07007KT 7SM BKN008 OVC015 26/22 A2999 RMK SLP150

More Conditions Fewer Conditions

Nowcast | as of 11:34 am CDT on September 19, 2014

Isolated showers and thunderstorms will be possible through the early afternoon along and east of the I-35 corridor. Rainfall amounts of 1/4 to 1/2 inches will occur these showers...with isolated amounts of 1 to 2 inches under heavier storms.

×

10-Day Weather Forecast

Almanac

Astronomy

Sep. 19, 2014 Rise Set
Actual Time 7:18 AM CDT 7:32 PM CDT
Civil Twilight 6:54 AM CDT 7:56 PM CDT
Nautical Twilight 6:26 AM CDT 8:24 PM CDT
Astronomical Twilight 5:57 AM CDT 8:53 PM CDT
Moon 3:18 AM CDT 4:50 PM CDT
Length of Visible Light 13h 02m
Length of Day
12h 13m
Tomorrow will be 1m 52s shorter.
Waning Crescent, 18% of the Moon is Illuminated
Today
Waning Crescent
Sep 24
New
Oct 1
First Quarter
Oct 8
Full
Oct 15
Last Quarter

Today's Extremes

State Highs State Lows

Community

WunderPhotos

Upload Photos

1,754,663 photos uploaded!

Nearby

Snow Depth

Station Depth Elevation
No new snow has been reported.

Earthquake Activity

City Distance Mag. Time & Date
No recent earthquake activity has been reported nearby.
Minimum magnitude displayed is 2.5.

Coastal Water Temperatures

Place Temperature
No Stations Reporting

Nearby Weather Stations